Hauptseite
METAR-TAF:

METAR-TAF

Flughäfen :

Flughafen Piešťany

Piešťany, Slowakei

Breite: 48-37-30N, Länge: 017-49-43E, Höhe: 163 m

Beobachtung

Neuester Wetterbericht von vor 3 Stunden und 11 Minuten, um 20:30 UTC
Wind 2 kt aus unterschiedlichen Richtungen
Temperatur 5°C
Luftfeuchtigkeit 87%
Luftdruck 1039 hPa
Sichtweite 10 km oder mehr

METAR: LZPP 252030Z AUTO VRB02KT 9999 NCD 05/03 Q1039

Zeit: 01:41 (23:41 UTC)

Prognose

Neuester Wetterbericht von vor 6 Stunden und 41 Minuten, um 17:00 UTC
Gültige Prognose vom 25 um 18 UTC bis 26 um 03 UTC
Wind 10 kt aus Nord
Sichtweite 10 km oder mehr
keine Wolken unter 1500 m und keine Kumulonimbus oder Gewitterwolken

TAF: LZPP 251700Z 2518/2603 35010KT CAVOK

Wetterbeobachtungen und Prognosen von mehr als 4000 Flughäfen (METAR und TAF Bericht).

Die verfügbaren Stationen werden durch gelbe und rote Markierungen auf der Karte dargestellt.

Führen Sie die Maus auf sie, um den Namen der Station zu sehen.

Darauf klicken, um die Beobachtung von Wetterbeobachtungen und Prognosen zu sehen.

Um die Karte zu ändern : klicken Sie auf den grünen Tasten mit einem schwarzen Kreuz Zum Vergrößern, auf den grünen Button mit einem Gedankenstrich zu verkleinern, oder auf die grünen Pfeile für benachbarte Karten.


METAR-TAF: